createdAt,value
2019-01-25T00:01:04.578Z,50.45
2019-01-25T00:03:33.370Z,50.05
2019-01-25T00:06:02.146Z,48.23
2019-01-25T00:08:31.068Z,48.60
2019-01-25T00:11:00.050Z,48.30
2019-01-25T00:13:28.837Z,47.78
2019-01-25T00:15:57.617Z,48.33
2019-01-25T00:18:27.056Z,48.42
2019-01-25T00:20:56.010Z,47.60
2019-01-25T00:23:25.145Z,47.05
2019-01-25T00:25:53.921Z,48.28
2019-01-25T00:28:22.780Z,48.50
2019-01-25T00:30:52.130Z,47.30
2019-01-25T00:33:21.021Z,45.83
2019-01-25T00:35:50.219Z,46.90
2019-01-25T00:38:19.338Z,47.27
2019-01-25T00:40:48.165Z,47.65
2019-01-25T00:43:17.378Z,47.53
2019-01-25T00:45:46.280Z,46.08
2019-01-25T00:48:15.166Z,44.58
2019-01-25T00:50:43.958Z,46.83
2019-01-25T00:53:12.821Z,45.73
2019-01-25T00:55:41.679Z,46.73
2019-01-25T00:58:10.922Z,46.53
2019-01-25T01:00:40.158Z,45.78
2019-01-25T01:03:09.197Z,46.18
2019-01-25T01:05:38.349Z,46.45
2019-01-25T01:08:07.250Z,44.75
2019-01-25T01:10:36.247Z,45.30
2019-01-25T01:13:05.653Z,45.10
2019-01-25T01:15:34.703Z,44.93
2019-01-25T01:18:03.560Z,44.00
2019-01-25T01:20:32.500Z,44.60
2019-01-25T01:23:02.018Z,42.58
2019-01-25T01:25:30.962Z,43.25
2019-01-25T01:27:59.903Z,44.25
2019-01-25T01:30:28.814Z,41.77
2019-01-25T01:32:57.944Z,42.23
2019-01-25T01:35:27.044Z,42.83
2019-01-25T01:37:55.990Z,43.08
2019-01-25T01:40:36.382Z,43.13
2019-01-25T01:43:05.403Z,43.65
2019-01-25T01:45:34.275Z,41.93
2019-01-25T01:48:03.192Z,41.77
2019-01-25T01:50:33.033Z,42.93
2019-01-25T01:53:02.226Z,42.33
2019-01-25T01:55:31.012Z,42.03
2019-01-25T01:57:59.806Z,41.80
2019-01-25T02:00:29.000Z,42.53
2019-01-25T02:02:57.981Z,42.08
2019-01-25T02:05:27.003Z,42.17
2019-01-25T02:07:55.935Z,41.75
2019-01-25T02:10:29.641Z,42.20
2019-01-25T02:12:57.364Z,42.53
2019-01-25T02:15:26.581Z,41.70
2019-01-25T02:17:55.846Z,41.70
2019-01-25T02:20:27.376Z,42.60
2019-01-25T02:22:56.305Z,42.65
2019-01-25T02:25:25.489Z,42.45
2019-01-25T02:27:54.416Z,43.13
2019-01-25T02:30:24.769Z,41.73
2019-01-25T02:32:53.731Z,41.68
2019-01-25T02:35:22.639Z,42.35
2019-01-25T02:37:51.573Z,42.03
2019-01-25T02:40:22.805Z,42.13
2019-01-25T02:42:51.755Z,42.33
2019-01-25T02:45:20.883Z,42.15
2019-01-25T02:47:49.927Z,41.95
2019-01-25T02:50:19.124Z,42.00
2019-01-25T02:52:48.256Z,43.13
2019-01-25T02:55:17.690Z,42.75
2019-01-25T02:57:46.809Z,41.90
2019-01-25T03:00:20.920Z,42.85
2019-01-25T03:02:50.160Z,41.60
2019-01-25T03:05:19.961Z,41.00
2019-01-25T03:07:49.168Z,41.68
2019-01-25T03:10:18.213Z,42.50
2019-01-25T03:12:47.424Z,41.53
2019-01-25T03:15:18.316Z,41.63
2019-01-25T03:17:47.403Z,41.37
2019-01-25T03:20:16.476Z,42.35
2019-01-25T03:22:45.470Z,41.90
2019-01-25T03:25:17.129Z,40.53
2019-01-25T03:27:46.085Z,41.02
2019-01-25T03:30:17.371Z,39.87
2019-01-25T03:32:46.494Z,41.68
2019-01-25T03:35:16.535Z,40.30
2019-01-25T03:37:45.437Z,42.17
2019-01-25T03:40:17.419Z,41.30
2019-01-25T03:42:46.510Z,42.75
2019-01-25T03:45:16.125Z,40.90
2019-01-25T03:47:45.066Z,41.98
2019-01-25T03:50:16.877Z,42.17
2019-01-25T03:52:45.671Z,42.00
2019-01-25T03:55:15.929Z,41.92
2019-01-25T03:57:44.866Z,41.77
2019-01-25T04:00:18.612Z,42.08
2019-01-25T04:02:47.791Z,43.78
2019-01-25T04:05:17.504Z,42.38
2019-01-25T04:07:47.602Z,42.55
2019-01-25T04:10:20.768Z,42.43
2019-01-25T04:12:49.823Z,41.50
2019-01-25T04:15:20.965Z,41.65
2019-01-25T04:17:49.837Z,41.48
2019-01-25T04:20:19.028Z,43.02
2019-01-25T04:22:48.228Z,42.03
2019-01-25T04:25:19.823Z,41.83
2019-01-25T04:27:48.721Z,42.50
2019-01-25T04:30:22.838Z,41.70
2019-01-25T04:32:51.701Z,43.33
2019-01-25T04:35:20.608Z,43.55
2019-01-25T04:37:49.861Z,42.38
2019-01-25T04:40:19.164Z,41.90
2019-01-25T04:42:48.347Z,42.45
2019-01-25T04:45:18.450Z,43.08
2019-01-25T04:47:47.369Z,41.55
2019-01-25T04:50:19.394Z,43.10
2019-01-25T04:52:48.820Z,43.15
2019-01-25T04:55:19.942Z,43.48
2019-01-25T04:57:49.397Z,42.53
2019-01-25T05:00:20.349Z,42.93
2019-01-25T05:02:54.622Z,41.68
2019-01-25T05:05:23.734Z,42.50
2019-01-25T05:08:01.848Z,44.83
2019-01-25T05:10:30.652Z,44.03
2019-01-25T05:12:59.845Z,43.40
2019-01-25T05:15:28.674Z,42.78
2019-01-25T05:17:57.835Z,42.35
2019-01-25T05:20:26.726Z,42.35
2019-01-25T05:22:57.239Z,42.20
2019-01-25T05:25:26.894Z,42.93
2019-01-25T05:27:56.144Z,42.65
2019-01-25T05:30:25.581Z,44.37
2019-01-25T05:32:54.896Z,44.03
2019-01-25T05:35:23.718Z,44.20
2019-01-25T05:37:52.568Z,43.08
2019-01-25T05:40:25.722Z,44.60
2019-01-25T05:42:54.659Z,45.15
2019-01-25T05:45:23.558Z,44.70
2019-01-25T05:47:52.709Z,44.45
2019-01-25T05:50:21.539Z,45.25
2019-01-25T05:52:50.423Z,44.08
2019-01-25T05:55:20.625Z,44.70
2019-01-25T05:57:49.743Z,45.55
2019-01-25T06:00:31.497Z,44.98
2019-01-25T06:03:07.461Z,47.55
2019-01-25T06:05:36.574Z,47.20
2019-01-25T06:08:29.361Z,46.80
2019-01-25T06:10:59.992Z,46.13
2019-01-25T06:13:29.117Z,45.92
2019-01-25T06:15:58.028Z,46.18
2019-01-25T06:18:26.888Z,46.30
2019-01-25T06:20:56.641Z,46.50
2019-01-25T06:23:25.487Z,47.03
2019-01-25T06:25:55.890Z,48.13
2019-01-25T06:28:25.257Z,48.75
2019-01-25T06:30:54.378Z,48.33
2019-01-25T06:33:23.511Z,48.35
2019-01-25T06:35:52.375Z,47.67
2019-01-25T06:38:21.753Z,48.70
2019-01-25T06:40:50.665Z,47.65
2019-01-25T06:43:19.676Z,49.77
2019-01-25T06:45:49.849Z,50.63
2019-01-25T06:48:19.034Z,48.42
2019-01-25T06:50:47.880Z,49.97
2019-01-25T06:53:16.717Z,49.75
2019-01-25T06:55:45.615Z,49.25
2019-01-25T06:58:32.456Z,50.88
2019-01-25T07:01:12.573Z,50.73
2019-01-25T07:03:41.384Z,50.20
2019-01-25T07:06:10.197Z,49.53
2019-01-25T07:08:38.968Z,49.73
2019-01-25T07:11:07.800Z,49.42
2019-01-25T07:13:36.717Z,50.45
2019-01-25T07:16:05.652Z,50.17
2019-01-25T07:18:34.532Z,49.98
2019-01-25T07:21:03.601Z,49.05
2019-01-25T07:23:32.480Z,50.27
2019-01-25T07:26:04.386Z,49.93
2019-01-25T07:28:33.211Z,50.92
2019-01-25T07:31:01.988Z,51.00
2019-01-25T07:33:30.989Z,48.68
2019-01-25T07:36:00.299Z,49.77
2019-01-25T07:38:29.177Z,50.92
2019-01-25T07:40:57.997Z,49.80
2019-01-25T07:43:26.815Z,49.05
2019-01-25T07:45:56.117Z,48.83
2019-01-25T07:48:24.953Z,50.28
2019-01-25T07:50:53.797Z,47.80
2019-01-25T07:53:22.644Z,48.52
2019-01-25T07:55:51.885Z,48.85
2019-01-25T07:58:20.964Z,50.30
2019-01-25T08:00:50.419Z,50.17
2019-01-25T08:03:19.173Z,52.00
2019-01-25T08:05:48.074Z,55.17
2019-01-25T08:08:17.352Z,50.35
2019-01-25T08:10:46.146Z,51.05
2019-01-25T08:13:14.981Z,48.13
2019-01-25T08:15:44.054Z,48.60
2019-01-25T08:18:12.845Z,47.78
2019-01-25T08:20:42.022Z,49.10
2019-01-25T08:23:10.773Z,48.17
2019-01-25T08:25:39.965Z,49.05
2019-01-25T08:28:08.980Z,49.30
2019-01-25T08:30:38.423Z,48.63
2019-01-25T08:33:07.809Z,49.35
2019-01-25T08:35:36.772Z,50.20
2019-01-25T08:38:06.625Z,48.47
2019-01-25T08:40:35.606Z,50.43
2019-01-25T08:43:04.409Z,49.83
2019-01-25T08:45:33.249Z,51.30
2019-01-25T08:48:02.030Z,49.88
2019-01-25T08:50:31.007Z,51.80
2019-01-25T08:52:59.943Z,49.63
2019-01-25T08:55:29.176Z,51.70
2019-01-25T08:57:58.633Z,53.13
2019-01-25T09:00:27.614Z,54.38
2019-01-25T09:02:56.444Z,53.73
2019-01-25T09:05:25.971Z,55.03
2019-01-25T09:07:54.804Z,54.08
2019-01-25T09:10:23.926Z,54.67
2019-01-25T09:12:52.844Z,52.78
2019-01-25T09:15:24.340Z,55.33
2019-01-25T09:17:53.556Z,54.00
2019-01-25T09:20:22.469Z,53.58
2019-01-25T09:22:51.376Z,53.95
2019-01-25T09:25:20.520Z,55.52
2019-01-25T09:27:49.443Z,56.47
2019-01-25T09:30:20.082Z,56.25
2019-01-25T09:32:48.978Z,55.43
2019-01-25T09:35:18.485Z,56.68
2019-01-25T09:37:47.773Z,56.30
2019-01-25T09:40:19.324Z,55.50
2019-01-25T09:42:48.203Z,55.03
2019-01-25T09:45:17.414Z,56.33
2019-01-25T09:47:46.248Z,55.58
2019-01-25T09:50:18.051Z,56.03
2019-01-25T09:52:47.088Z,55.28
2019-01-25T09:55:18.247Z,55.23
2019-01-25T09:57:47.814Z,55.70
2019-01-25T10:00:37.756Z,56.02
2019-01-25T10:03:06.602Z,56.30
2019-01-25T10:05:35.464Z,54.93
2019-01-25T10:08:04.641Z,54.50
2019-01-25T10:10:33.894Z,55.70
2019-01-25T10:13:02.688Z,54.87
2019-01-25T10:15:31.703Z,54.27
2019-01-25T10:18:00.601Z,56.35
2019-01-25T10:20:29.780Z,55.43
2019-01-25T10:22:58.641Z,55.98
2019-01-25T10:25:27.985Z,54.83
2019-01-25T10:27:56.840Z,55.70
2019-01-25T10:30:26.120Z,56.37
2019-01-25T10:32:55.080Z,56.77
2019-01-25T10:35:24.100Z,55.25
2019-01-25T10:37:53.373Z,58.20
2019-01-25T10:40:22.261Z,57.08
2019-01-25T10:42:53.242Z,55.83
2019-01-25T10:45:30.804Z,55.83
2019-01-25T10:47:59.735Z,58.10
2019-01-25T10:50:28.899Z,57.23
2019-01-25T10:52:57.829Z,57.85
2019-01-25T10:55:26.799Z,56.87
2019-01-25T10:57:55.730Z,55.70
2019-01-25T11:00:24.755Z,56.53
2019-01-25T11:02:58.311Z,56.35
2019-01-25T11:05:25.064Z,56.80
2019-01-25T11:07:54.003Z,57.45
2019-01-25T11:10:23.037Z,57.38
2019-01-25T11:12:51.931Z,58.78
2019-01-25T11:15:22.240Z,58.20
2019-01-25T11:17:51.490Z,58.95
2019-01-25T11:20:21.807Z,57.57
2019-01-25T11:22:50.706Z,58.10
2019-01-25T11:25:28.816Z,56.40
2019-01-25T11:27:57.973Z,58.28
2019-01-25T11:30:27.134Z,57.75
2019-01-25T11:32:56.040Z,58.15
2019-01-25T11:35:24.881Z,57.27
2019-01-25T11:37:53.976Z,58.50
2019-01-25T11:40:28.385Z,58.55
2019-01-25T11:42:57.670Z,59.67
2019-01-25T11:45:26.493Z,58.80
2019-01-25T11:47:55.520Z,57.38
2019-01-25T11:50:24.374Z,58.15
2019-01-25T11:52:53.216Z,59.80
2019-01-25T11:55:22.212Z,57.67
2019-01-25T11:57:51.133Z,57.62
2019-01-25T12:00:24.889Z,57.70
2019-01-25T12:02:53.836Z,56.58
2019-01-25T12:05:23.419Z,58.73
2019-01-25T12:07:52.609Z,57.27
2019-01-25T12:10:26.222Z,57.00
2019-01-25T12:12:55.117Z,58.05
2019-01-25T12:15:24.020Z,59.15
2019-01-25T12:17:52.871Z,58.70
2019-01-25T12:20:26.494Z,58.42
2019-01-25T12:22:55.364Z,58.30
2019-01-25T12:25:24.299Z,57.45
2019-01-25T12:27:53.609Z,58.35
2019-01-25T12:30:37.802Z,57.78
2019-01-25T12:33:05.988Z,55.70
2019-01-25T12:35:37.620Z,56.03
2019-01-25T12:38:06.865Z,57.20
2019-01-25T12:40:35.869Z,56.63
2019-01-25T12:43:05.692Z,55.78
2019-01-25T12:45:34.533Z,57.15
2019-01-25T12:48:03.524Z,54.80
2019-01-25T12:50:41.641Z,55.28
2019-01-25T12:53:10.734Z,55.08
2019-01-25T12:55:39.720Z,53.90
2019-01-25T12:58:08.718Z,54.05
2019-01-25T13:00:37.682Z,53.33
2019-01-25T13:03:06.821Z,52.53
2019-01-25T13:05:35.804Z,53.13
2019-01-25T13:08:04.822Z,53.15
2019-01-25T13:10:33.677Z,53.65
2019-01-25T13:13:02.721Z,53.65
2019-01-25T13:15:31.477Z,52.83
2019-01-25T13:18:00.374Z,53.28
2019-01-25T13:20:29.637Z,52.27
2019-01-25T13:22:58.745Z,52.80
2019-01-25T13:25:27.892Z,52.53
2019-01-25T13:27:56.878Z,52.17
2019-01-25T13:30:27.362Z,52.43
2019-01-25T13:32:56.475Z,51.70
2019-01-25T13:35:25.738Z,52.40
2019-01-25T13:37:54.869Z,52.03
2019-01-25T13:40:24.436Z,49.67
2019-01-25T13:42:53.374Z,52.35
2019-01-25T13:45:22.972Z,51.80
2019-01-25T13:47:52.384Z,49.23
2019-01-25T13:50:25.567Z,49.83
2019-01-25T13:52:54.727Z,50.23
2019-01-25T13:55:24.049Z,48.83
2019-01-25T13:57:52.961Z,48.15
2019-01-25T14:00:27.149Z,47.70
2019-01-25T14:02:56.072Z,47.43
2019-01-25T14:05:25.004Z,47.65
2019-01-25T14:07:53.991Z,47.53
2019-01-25T14:10:25.692Z,45.90
2019-01-25T14:12:54.519Z,46.13
2019-01-25T14:15:23.743Z,45.73
2019-01-25T14:17:52.669Z,45.75
2019-01-25T14:20:23.785Z,46.02
2019-01-25T14:22:53.082Z,45.88
2019-01-25T14:25:22.530Z,46.60
2019-01-25T14:27:51.588Z,44.42
2019-01-25T14:30:29.904Z,42.87
2019-01-25T14:32:58.712Z,44.20
2019-01-25T14:35:27.672Z,43.00
2019-01-25T14:37:56.548Z,42.50
2019-01-25T14:40:25.392Z,39.48
2019-01-25T14:42:54.233Z,43.13
2019-01-25T14:45:23.069Z,32.63
2019-01-25T14:47:52.021Z,37.08
2019-01-25T14:50:21.876Z,41.20
2019-01-25T14:52:51.226Z,32.45
2019-01-25T14:55:20.421Z,36.10
2019-01-25T14:57:49.401Z,33.98
2019-01-25T15:00:19.120Z,20.37
2019-01-25T15:02:48.078Z,18.98
2019-01-25T15:05:18.839Z,18.48
2019-01-25T15:07:47.783Z,16.93
2019-01-25T15:10:21.459Z,17.40
2019-01-25T15:12:51.342Z,17.98
2019-01-25T15:15:20.323Z,18.20
2019-01-25T15:17:49.605Z,18.98
2019-01-25T15:20:23.272Z,18.57
2019-01-25T15:22:52.194Z,20.03
2019-01-25T15:25:21.502Z,20.05
2019-01-25T15:27:50.300Z,20.25
2019-01-25T15:30:21.787Z,21.52
2019-01-25T15:32:50.759Z,22.13
2019-01-25T15:35:20.903Z,22.75
2019-01-25T15:37:49.757Z,23.45
2019-01-25T15:40:19.270Z,23.55
2019-01-25T15:42:48.182Z,23.00
2019-01-25T15:45:17.688Z,23.18
2019-01-25T15:47:46.832Z,23.67
2019-01-25T15:50:24.204Z,22.52
2019-01-25T15:52:53.095Z,22.70
2019-01-25T15:55:22.416Z,23.07
2019-01-25T15:57:51.545Z,22.87
2019-01-25T16:00:22.144Z,21.65
2019-01-25T16:02:51.069Z,22.48
2019-01-25T16:05:21.313Z,21.95
2019-01-25T16:07:50.341Z,21.35
2019-01-25T16:10:20.555Z,21.42
2019-01-25T16:12:49.571Z,20.27
2019-01-25T16:15:21.097Z,19.75
2019-01-25T16:17:50.124Z,19.50
2019-01-25T16:20:19.237Z,18.57
2019-01-25T16:22:49.044Z,18.82
2019-01-25T16:25:29.899Z,19.07
2019-01-25T16:27:58.736Z,18.87
2019-01-25T16:30:29.913Z,18.30
2019-01-25T16:32:59.900Z,18.42
2019-01-25T16:35:29.189Z,18.65
2019-01-25T16:37:58.224Z,19.60
2019-01-25T16:40:28.280Z,22.48
2019-01-25T16:42:57.064Z,24.47
2019-01-25T16:45:28.547Z,25.68
2019-01-25T16:47:57.473Z,29.80
2019-01-25T16:50:26.313Z,31.35
2019-01-25T16:52:55.250Z,31.73
2019-01-25T16:55:24.216Z,32.90
2019-01-25T16:57:53.436Z,33.30
2019-01-25T17:00:24.856Z,34.75
2019-01-25T17:02:54.474Z,34.30
2019-01-25T17:05:23.649Z,34.15
2019-01-25T17:07:52.825Z,33.90
2019-01-25T17:10:21.670Z,34.60
2019-01-25T17:12:50.594Z,34.75
2019-01-25T17:15:19.445Z,33.92
2019-01-25T17:17:48.402Z,32.93
2019-01-25T17:20:21.355Z,33.48
2019-01-25T17:22:49.069Z,32.45
2019-01-25T17:25:17.977Z,30.72
2019-01-25T17:27:46.975Z,32.03
2019-01-25T17:30:25.006Z,32.53
2019-01-25T17:32:54.446Z,32.07
2019-01-25T17:35:23.364Z,31.45
2019-01-25T17:37:52.623Z,31.75
2019-01-25T17:40:23.926Z,31.35
2019-01-25T17:42:52.841Z,31.48
2019-01-25T17:45:21.696Z,32.28
2019-01-25T17:47:50.541Z,32.13
2019-01-25T17:50:19.932Z,32.15
2019-01-25T17:52:48.782Z,31.52
2019-01-25T17:55:17.735Z,31.55
2019-01-25T17:57:46.745Z,32.15
2019-01-25T18:00:26.480Z,32.13
2019-01-25T18:02:55.368Z,33.23
2019-01-25T18:05:24.223Z,34.37
2019-01-25T18:07:53.425Z,34.40
2019-01-25T18:10:22.668Z,35.05
2019-01-25T18:12:51.608Z,36.20
2019-01-25T18:15:20.729Z,36.07
2019-01-25T18:17:49.763Z,36.15
2019-01-25T18:20:18.711Z,36.10
2019-01-25T18:22:47.734Z,37.53
2019-01-25T18:25:23.180Z,36.60
2019-01-25T18:27:55.861Z,36.93
2019-01-25T18:30:33.150Z,36.65
2019-01-25T18:33:01.988Z,38.23
2019-01-25T18:35:31.519Z,38.63
2019-01-25T18:38:00.369Z,39.33
2019-01-25T18:40:29.367Z,37.83
2019-01-25T18:42:58.284Z,38.33
2019-01-25T18:45:27.133Z,38.98
2019-01-25T18:47:55.976Z,40.25
2019-01-25T18:50:24.809Z,38.88
2019-01-25T18:52:53.957Z,39.58
2019-01-25T18:55:23.358Z,38.02
2019-01-25T18:57:52.293Z,39.40
2019-01-25T19:00:21.929Z,37.35
2019-01-25T19:02:50.909Z,39.83
2019-01-25T19:05:19.866Z,38.67
2019-01-25T19:07:48.862Z,38.20
2019-01-25T19:10:20.377Z,39.18
2019-01-25T19:12:49.236Z,38.55
2019-01-25T19:15:24.145Z,38.02
2019-01-25T19:17:53.133Z,38.08
2019-01-25T19:20:22.140Z,39.23
2019-01-25T19:22:51.064Z,39.80
2019-01-25T19:25:20.233Z,38.88
2019-01-25T19:27:49.511Z,38.30
2019-01-25T19:30:31.066Z,39.05
2019-01-25T19:33:00.488Z,39.53
2019-01-25T19:35:29.521Z,38.13
2019-01-25T19:37:58.989Z,40.60
2019-01-25T19:40:29.210Z,39.73
2019-01-25T19:42:58.113Z,39.98
2019-01-25T19:45:27.275Z,38.58
2019-01-25T19:47:56.429Z,40.95
2019-01-25T19:50:25.252Z,40.70
2019-01-25T19:52:54.097Z,40.80
2019-01-25T19:55:24.857Z,39.98
2019-01-25T19:57:54.436Z,40.45
2019-01-25T20:00:31.974Z,42.60
2019-01-25T20:03:01.008Z,41.20
2019-01-25T20:05:30.665Z,41.60
2019-01-25T20:07:59.659Z,41.63
2019-01-25T20:10:28.775Z,40.78
2019-01-25T20:12:57.875Z,42.50
2019-01-25T20:15:26.884Z,43.28
2019-01-25T20:17:55.813Z,42.17
2019-01-25T20:20:27.205Z,43.28
2019-01-25T20:22:56.151Z,42.62
2019-01-25T20:25:25.350Z,43.35
2019-01-25T20:27:54.292Z,44.83
2019-01-25T20:30:25.569Z,42.73
2019-01-25T20:32:55.026Z,45.13
2019-01-25T20:35:26.455Z,43.70
2019-01-25T20:37:55.646Z,43.40
2019-01-25T20:40:24.602Z,45.43
2019-01-25T20:42:54.641Z,44.93
2019-01-25T20:45:27.188Z,42.27
2019-01-25T20:47:56.626Z,43.87
2019-01-25T20:50:27.667Z,44.88
2019-01-25T20:52:56.714Z,45.75
2019-01-25T20:55:25.952Z,44.58
2019-01-25T20:57:55.955Z,45.92
2019-01-25T21:00:27.101Z,46.77
2019-01-25T21:02:56.308Z,46.63
2019-01-25T21:05:25.972Z,44.93
2019-01-25T21:07:54.868Z,47.80
2019-01-25T21:10:24.195Z,47.35
2019-01-25T21:12:53.398Z,46.68
2019-01-25T21:15:23.849Z,46.15
2019-01-25T21:17:53.084Z,46.08
2019-01-25T21:20:27.577Z,48.63
2019-01-25T21:22:56.752Z,47.05
2019-01-25T21:25:25.596Z,49.42
2019-01-25T21:27:54.441Z,46.70
2019-01-25T21:30:26.060Z,49.10
2019-01-25T21:32:55.104Z,48.08
2019-01-25T21:35:24.130Z,48.17
2019-01-25T21:37:53.069Z,46.80
2019-01-25T21:40:24.376Z,47.33
2019-01-25T21:42:53.565Z,47.43
2019-01-25T21:45:23.895Z,46.70
2019-01-25T21:47:53.156Z,47.55
2019-01-25T21:50:24.622Z,49.18
2019-01-25T21:52:53.973Z,47.03
2019-01-25T21:55:22.737Z,46.45
2019-01-25T21:57:51.593Z,47.45
2019-01-25T22:00:22.538Z,47.17
2019-01-25T22:02:51.492Z,47.10
2019-01-25T22:05:20.708Z,46.50
2019-01-25T22:07:49.729Z,46.65
2019-01-25T22:10:21.528Z,48.35
2019-01-25T22:12:50.444Z,47.40
2019-01-25T22:15:20.054Z,49.40
2019-01-25T22:17:49.059Z,49.13
2019-01-25T22:20:23.265Z,48.45
2019-01-25T22:22:52.109Z,47.88
2019-01-25T22:25:21.527Z,48.95
2019-01-25T22:27:52.069Z,48.65
2019-01-25T22:30:22.529Z,47.45
2019-01-25T22:32:51.472Z,49.25
2019-01-25T22:35:20.601Z,46.83
2019-01-25T22:37:49.659Z,47.70
2019-01-25T22:40:24.401Z,48.40
2019-01-25T22:42:53.472Z,45.48
2019-01-25T22:45:24.349Z,49.00
2019-01-25T22:47:53.367Z,46.53
2019-01-25T22:50:23.867Z,46.92
2019-01-25T22:52:52.641Z,44.30
2019-01-25T22:55:21.883Z,45.38
2019-01-25T22:57:51.096Z,44.75
2019-01-25T23:01:19.205Z,46.40
2019-01-25T23:04:21.621Z,44.70
2019-01-25T23:07:11.708Z,45.10
2019-01-25T23:09:44.208Z,41.20
2019-01-25T23:12:13.101Z,42.88
2019-01-25T23:14:41.883Z,44.60
2019-01-25T23:17:10.816Z,40.38
2019-01-25T23:19:39.577Z,42.00
2019-01-25T23:22:08.480Z,43.00
2019-01-25T23:24:37.334Z,41.80
2019-01-25T23:27:06.237Z,41.48
2019-01-25T23:29:35.354Z,41.30
2019-01-25T23:32:04.252Z,39.03
2019-01-25T23:34:33.235Z,39.40
2019-01-25T23:37:02.476Z,38.75
2019-01-25T23:39:31.351Z,40.08
2019-01-25T23:42:00.184Z,39.03
2019-01-25T23:44:29.272Z,39.27
2019-01-25T23:46:58.048Z,38.83
2019-01-25T23:49:26.835Z,36.83
2019-01-25T23:51:55.908Z,39.10
2019-01-25T23:54:24.924Z,39.15
2019-01-25T23:56:53.692Z,37.48
2019-01-25T23:59:22.492Z,38.05
